sensor_id;sensor_type;location;lat;lon;timestamp;pressure;altitude;pressure_sealevel;temperature
79488;BMP180;68949;53.176;18.088;2023-11-21T00:02:27;99541.60;;;
79488;BMP180;68949;53.176;18.088;2023-11-21T00:04:54;99547.00;;;
79488;BMP180;68949;53.176;18.088;2023-11-21T00:07:21;99548.80;;;
79488;BMP180;68949;53.176;18.088;2023-11-21T00:09:48;99553.00;;;
79488;BMP180;68949;53.176;18.088;2023-11-21T00:12:14;99551.40;;;
79488;BMP180;68949;53.176;18.088;2023-11-21T00:14:41;99550.80;;;
79488;BMP180;68949;53.176;18.088;2023-11-21T00:17:08;99558.60;;;
79488;BMP180;68949;53.176;18.088;2023-11-21T00:19:35;99563.20;;;
79488;BMP180;68949;53.176;18.088;2023-11-21T00:22:02;99565.40;;;
79488;BMP180;68949;53.176;18.088;2023-11-21T00:24:29;99563.20;;;
79488;BMP180;68949;53.176;18.088;2023-11-21T00:26:56;99566.20;;;
79488;BMP180;68949;53.176;18.088;2023-11-21T00:29:22;99560.40;;;
79488;BMP180;68949;53.176;18.088;2023-11-21T00:31:49;99566.40;;;
79488;BMP180;68949;53.176;18.088;2023-11-21T00:34:16;99571.00;;;
79488;BMP180;68949;53.176;18.088;2023-11-21T00:36:42;99575.60;;;
79488;BMP180;68949;53.176;18.088;2023-11-21T00:39:09;99575.40;;;
79488;BMP180;68949;53.176;18.088;2023-11-21T00:41:36;99580.40;;;
79488;BMP180;68949;53.176;18.088;2023-11-21T00:44:04;99580.20;;;
79488;BMP180;68949;53.176;18.088;2023-11-21T00:46:31;99581.40;;;
79488;BMP180;68949;53.176;18.088;2023-11-21T00:48:57;99587.00;;;
79488;BMP180;68949;53.176;18.088;2023-11-21T00:51:24;99593.80;;;
79488;BMP180;68949;53.176;18.088;2023-11-21T00:53:51;99594.20;;;
79488;BMP180;68949;53.176;18.088;2023-11-21T00:56:18;99597.80;;;
79488;BMP180;68949;53.176;18.088;2023-11-21T00:58:45;99598.60;;;
79488;BMP180;68949;53.176;18.088;2023-11-21T01:01:13;99595.60;;;
79488;BMP180;68949;53.176;18.088;2023-11-21T01:03:40;99595.20;;;
79488;BMP180;68949;53.176;18.088;2023-11-21T01:06:07;99595.00;;;
79488;BMP180;68949;53.176;18.088;2023-11-21T01:08:35;99596.60;;;
79488;BMP180;68949;53.176;18.088;2023-11-21T01:11:02;99600.20;;;
79488;BMP180;68949;53.176;18.088;2023-11-21T01:13:30;99608.20;;;
79488;BMP180;68949;53.176;18.088;2023-11-21T01:15:57;99609.00;;;
79488;BMP180;68949;53.176;18.088;2023-11-21T01:18:23;99614.20;;;
79488;BMP180;68949;53.176;18.088;2023-11-21T01:20:52;99614.00;;;
79488;BMP180;68949;53.176;18.088;2023-11-21T01:23:22;99618.60;;;
79488;BMP180;68949;53.176;18.088;2023-11-21T01:25:49;99618.40;;;
79488;BMP180;68949;53.176;18.088;2023-11-21T01:28:18;99623.20;;;
79488;BMP180;68949;53.176;18.088;2023-11-21T01:30:46;99625.20;;;
79488;BMP180;68949;53.176;18.088;2023-11-21T01:33:13;99630.20;;;
79488;BMP180;68949;53.176;18.088;2023-11-21T01:35:42;99635.20;;;
79488;BMP180;68949;53.176;18.088;2023-11-21T01:38:09;99635.40;;;
79488;BMP180;68949;53.176;18.088;2023-11-21T01:40:36;99629.20;;;
79488;BMP180;68949;53.176;18.088;2023-11-21T01:43:02;99631.40;;;
79488;BMP180;68949;53.176;18.088;2023-11-21T01:45:32;99633.00;;;
79488;BMP180;68949;53.176;18.088;2023-11-21T01:48:02;99633.40;;;
79488;BMP180;68949;53.176;18.088;2023-11-21T01:50:29;99641.60;;;
79488;BMP180;68949;53.176;18.088;2023-11-21T01:52:57;99633.40;;;
79488;BMP180;68949;53.176;18.088;2023-11-21T01:55:24;99631.20;;;
79488;BMP180;68949;53.176;18.088;2023-11-21T01:57:51;99633.20;;;
79488;BMP180;68949;53.176;18.088;2023-11-21T02:00:18;99631.20;;;
79488;BMP180;68949;53.176;18.088;2023-11-21T02:02:48;99643.00;;;
79488;BMP180;68949;53.176;18.088;2023-11-21T02:05:16;99643.20;;;
79488;BMP180;68949;53.176;18.088;2023-11-21T02:07:46;99644.60;;;
79488;BMP180;68949;53.176;18.088;2023-11-21T02:10:16;99641.20;;;
79488;BMP180;68949;53.176;18.088;2023-11-21T02:12:43;99641.00;;;
79488;BMP180;68949;53.176;18.088;2023-11-21T02:15:13;99647.00;;;
79488;BMP180;68949;53.176;18.088;2023-11-21T02:17:47;99653.80;;;
79488;BMP180;68949;53.176;18.088;2023-11-21T02:20:18;99655.20;;;
79488;BMP180;68949;53.176;18.088;2023-11-21T02:22:51;99649.80;;;
79488;BMP180;68949;53.176;18.088;2023-11-21T02:25:28;99647.00;;;
79488;BMP180;68949;53.176;18.088;2023-11-21T02:28:02;99644.80;;;
79488;BMP180;68949;53.176;18.088;2023-11-21T02:30:30;99645.40;;;
79488;BMP180;68949;53.176;18.088;2023-11-21T02:33:01;99651.00;;;
79488;BMP180;68949;53.176;18.088;2023-11-21T02:35:28;99648.40;;;
79488;BMP180;68949;53.176;18.088;2023-11-21T02:37:59;99651.60;;;
79488;BMP180;68949;53.176;18.088;2023-11-21T02:40:25;99651.40;;;
79488;BMP180;68949;53.176;18.088;2023-11-21T02:42:53;99651.80;;;
79488;BMP180;68949;53.176;18.088;2023-11-21T02:45:21;99650.80;;;
79488;BMP180;68949;53.176;18.088;2023-11-21T02:47:47;99655.80;;;
79488;BMP180;68949;53.176;18.088;2023-11-21T02:50:15;99669.60;;;
79488;BMP180;68949;53.176;18.088;2023-11-21T02:52:42;99656.20;;;
79488;BMP180;68949;53.176;18.088;2023-11-21T02:55:09;99651.20;;;
79488;BMP180;68949;53.176;18.088;2023-11-21T02:57:36;99654.00;;;
79488;BMP180;68949;53.176;18.088;2023-11-21T03:00:03;99661.20;;;
79488;BMP180;68949;53.176;18.088;2023-11-21T03:02:34;99668.20;;;
79488;BMP180;68949;53.176;18.088;2023-11-21T03:05:06;99657.00;;;
79488;BMP180;68949;53.176;18.088;2023-11-21T03:07:33;99664.20;;;
79488;BMP180;68949;53.176;18.088;2023-11-21T03:10:00;99668.60;;;
79488;BMP180;68949;53.176;18.088;2023-11-21T03:12:27;99676.60;;;
79488;BMP180;68949;53.176;18.088;2023-11-21T03:14:53;99681.80;;;
79488;BMP180;68949;53.176;18.088;2023-11-21T03:17:22;99679.20;;;
79488;BMP180;68949;53.176;18.088;2023-11-21T03:19:48;99683.80;;;
79488;BMP180;68949;53.176;18.088;2023-11-21T03:22:15;99681.40;;;
79488;BMP180;68949;53.176;18.088;2023-11-21T03:24:42;99681.60;;;
79488;BMP180;68949;53.176;18.088;2023-11-21T03:27:08;99681.00;;;
79488;BMP180;68949;53.176;18.088;2023-11-21T03:29:35;99683.00;;;
79488;BMP180;68949;53.176;18.088;2023-11-21T03:32:02;99692.00;;;
79488;BMP180;68949;53.176;18.088;2023-11-21T03:34:28;99689.00;;;
79488;BMP180;68949;53.176;18.088;2023-11-21T03:36:55;99693.20;;;
79488;BMP180;68949;53.176;18.088;2023-11-21T03:39:22;99696.40;;;
79488;BMP180;68949;53.176;18.088;2023-11-21T03:41:49;99697.80;;;
79488;BMP180;68949;53.176;18.088;2023-11-21T03:44:18;99697.00;;;
79488;BMP180;68949;53.176;18.088;2023-11-21T03:46:45;99691.40;;;
79488;BMP180;68949;53.176;18.088;2023-11-21T03:49:12;99694.20;;;
79488;BMP180;68949;53.176;18.088;2023-11-21T03:51:39;99696.20;;;
79488;BMP180;68949;53.176;18.088;2023-11-21T03:54:06;99686.40;;;
79488;BMP180;68949;53.176;18.088;2023-11-21T03:56:32;99685.20;;;
79488;BMP180;68949;53.176;18.088;2023-11-21T03:59:00;99683.80;;;
79488;BMP180;68949;53.176;18.088;2023-11-21T04:01:27;99681.40;;;
79488;BMP180;68949;53.176;18.088;2023-11-21T04:03:54;99687.20;;;
79488;BMP180;68949;53.176;18.088;2023-11-21T04:06:20;99689.00;;;
79488;BMP180;68949;53.176;18.088;2023-11-21T04:08:47;99701.80;;;
79488;BMP180;68949;53.176;18.088;2023-11-21T04:11:14;99703.20;;;
79488;BMP180;68949;53.176;18.088;2023-11-21T04:13:42;99710.20;;;
79488;BMP180;68949;53.176;18.088;2023-11-21T04:16:09;99699.60;;;
79488;BMP180;68949;53.176;18.088;2023-11-21T04:18:36;99703.40;;;
79488;BMP180;68949;53.176;18.088;2023-11-21T04:21:07;99702.60;;;
79488;BMP180;68949;53.176;18.088;2023-11-21T04:23:35;99710.00;;;
79488;BMP180;68949;53.176;18.088;2023-11-21T04:26:02;99707.20;;;
79488;BMP180;68949;53.176;18.088;2023-11-21T04:28:28;99709.20;;;
79488;BMP180;68949;53.176;18.088;2023-11-21T04:30:55;99718.00;;;
79488;BMP180;68949;53.176;18.088;2023-11-21T04:33:22;99719.80;;;
79488;BMP180;68949;53.176;18.088;2023-11-21T04:35:49;99719.00;;;
79488;BMP180;68949;53.176;18.088;2023-11-21T04:38:15;99722.20;;;
79488;BMP180;68949;53.176;18.088;2023-11-21T04:40:42;99726.80;;;
79488;BMP180;68949;53.176;18.088;2023-11-21T04:43:09;99718.80;;;
79488;BMP180;68949;53.176;18.088;2023-11-21T04:45:35;99726.40;;;
79488;BMP180;68949;53.176;18.088;2023-11-21T04:48:02;99727.60;;;
79488;BMP180;68949;53.176;18.088;2023-11-21T04:50:30;99732.60;;;
79488;BMP180;68949;53.176;18.088;2023-11-21T04:52:56;99734.20;;;
79488;BMP180;68949;53.176;18.088;2023-11-21T04:55:23;99740.40;;;
79488;BMP180;68949;53.176;18.088;2023-11-21T04:57:50;99743.40;;;
79488;BMP180;68949;53.176;18.088;2023-11-21T05:00:17;99748.40;;;
79488;BMP180;68949;53.176;18.088;2023-11-21T05:02:44;99759.40;;;
79488;BMP180;68949;53.176;18.088;2023-11-21T05:05:11;99755.20;;;
79488;BMP180;68949;53.176;18.088;2023-11-21T05:07:41;99760.80;;;
79488;BMP180;68949;53.176;18.088;2023-11-21T05:10:09;99770.00;;;
79488;BMP180;68949;53.176;18.088;2023-11-21T05:12:38;99767.80;;;
79488;BMP180;68949;53.176;18.088;2023-11-21T05:15:08;99760.60;;;
79488;BMP180;68949;53.176;18.088;2023-11-21T05:17:38;99762.60;;;
79488;BMP180;68949;53.176;18.088;2023-11-21T05:20:10;99763.00;;;
79488;BMP180;68949;53.176;18.088;2023-11-21T05:22:38;99768.80;;;
79488;BMP180;68949;53.176;18.088;2023-11-21T05:25:06;99770.60;;;
79488;BMP180;68949;53.176;18.088;2023-11-21T05:27:35;99772.20;;;
79488;BMP180;68949;53.176;18.088;2023-11-21T05:30:04;99774.20;;;
79488;BMP180;68949;53.176;18.088;2023-11-21T05:32:33;99778.80;;;
79488;BMP180;68949;53.176;18.088;2023-11-21T05:35:00;99789.40;;;
79488;BMP180;68949;53.176;18.088;2023-11-21T05:37:27;99792.40;;;
79488;BMP180;68949;53.176;18.088;2023-11-21T05:39:55;99795.40;;;
79488;BMP180;68949;53.176;18.088;2023-11-21T05:42:24;99798.40;;;
79488;BMP180;68949;53.176;18.088;2023-11-21T05:44:51;99804.20;;;
79488;BMP180;68949;53.176;18.088;2023-11-21T05:47:18;99813.20;;;
79488;BMP180;68949;53.176;18.088;2023-11-21T05:49:44;99804.20;;;
79488;BMP180;68949;53.176;18.088;2023-11-21T05:52:12;99810.80;;;
79488;BMP180;68949;53.176;18.088;2023-11-21T05:54:38;99810.60;;;
79488;BMP180;68949;53.176;18.088;2023-11-21T05:57:05;99817.00;;;
79488;BMP180;68949;53.176;18.088;2023-11-21T05:59:32;99821.40;;;
79488;BMP180;68949;53.176;18.088;2023-11-21T06:01:59;99824.60;;;
79488;BMP180;68949;53.176;18.088;2023-11-21T06:04:25;99832.60;;;
79488;BMP180;68949;53.176;18.088;2023-11-21T06:06:52;99836.80;;;
79488;BMP180;68949;53.176;18.088;2023-11-21T06:09:19;99843.20;;;
79488;BMP180;68949;53.176;18.088;2023-11-21T06:11:47;99841.60;;;
79488;BMP180;68949;53.176;18.088;2023-11-21T06:14:13;99844.60;;;
79488;BMP180;68949;53.176;18.088;2023-11-21T06:16:41;99847.60;;;
79488;BMP180;68949;53.176;18.088;2023-11-21T06:19:08;99853.20;;;
79488;BMP180;68949;53.176;18.088;2023-11-21T06:21:35;99851.40;;;
79488;BMP180;68949;53.176;18.088;2023-11-21T06:24:02;99855.00;;;
79488;BMP180;68949;53.176;18.088;2023-11-21T06:26:28;99858.60;;;
79488;BMP180;68949;53.176;18.088;2023-11-21T06:28:55;99863.00;;;
79488;BMP180;68949;53.176;18.088;2023-11-21T06:31:23;99873.60;;;
79488;BMP180;68949;53.176;18.088;2023-11-21T06:33:50;99877.60;;;
79488;BMP180;68949;53.176;18.088;2023-11-21T06:36:18;99878.00;;;
79488;BMP180;68949;53.176;18.088;2023-11-21T06:38:45;99885.20;;;
79488;BMP180;68949;53.176;18.088;2023-11-21T06:41:13;99887.60;;;
79488;BMP180;68949;53.176;18.088;2023-11-21T06:43:41;99889.60;;;
79488;BMP180;68949;53.176;18.088;2023-11-21T06:46:13;99888.00;;;
79488;BMP180;68949;53.176;18.088;2023-11-21T06:48:43;99884.00;;;
79488;BMP180;68949;53.176;18.088;2023-11-21T06:51:10;99881.80;;;
79488;BMP180;68949;53.176;18.088;2023-11-21T06:53:37;99886.40;;;
79488;BMP180;68949;53.176;18.088;2023-11-21T06:56:04;99890.40;;;
79488;BMP180;68949;53.176;18.088;2023-11-21T06:58:33;99886.20;;;
79488;BMP180;68949;53.176;18.088;2023-11-21T07:01:00;99887.80;;;
79488;BMP180;68949;53.176;18.088;2023-11-21T07:03:27;99894.20;;;
79488;BMP180;68949;53.176;18.088;2023-11-21T07:05:54;99891.00;;;
79488;BMP180;68949;53.176;18.088;2023-11-21T07:08:20;99896.20;;;
79488;BMP180;68949;53.176;18.088;2023-11-21T07:10:47;99901.60;;;
79488;BMP180;68949;53.176;18.088;2023-11-21T07:13:14;99905.80;;;
79488;BMP180;68949;53.176;18.088;2023-11-21T07:15:40;99911.20;;;
79488;BMP180;68949;53.176;18.088;2023-11-21T07:18:07;99902.60;;;
79488;BMP180;68949;53.176;18.088;2023-11-21T07:20:34;99904.20;;;
79488;BMP180;68949;53.176;18.088;2023-11-21T07:23:01;99909.20;;;
79488;BMP180;68949;53.176;18.088;2023-11-21T07:25:27;99913.00;;;
79488;BMP180;68949;53.176;18.088;2023-11-21T07:27:54;99919.00;;;
79488;BMP180;68949;53.176;18.088;2023-11-21T07:30:22;99917.80;;;
79488;BMP180;68949;53.176;18.088;2023-11-21T07:32:49;99922.40;;;
79488;BMP180;68949;53.176;18.088;2023-11-21T07:35:16;99919.60;;;
79488;BMP180;68949;53.176;18.088;2023-11-21T07:37:43;99927.00;;;
79488;BMP180;68949;53.176;18.088;2023-11-21T07:40:10;99932.00;;;
79488;BMP180;68949;53.176;18.088;2023-11-21T07:42:38;99934.00;;;
79488;BMP180;68949;53.176;18.088;2023-11-21T07:45:06;99932.40;;;
79488;BMP180;68949;53.176;18.088;2023-11-21T07:47:34;99931.80;;;
79488;BMP180;68949;53.176;18.088;2023-11-21T07:50:03;99928.40;;;
79488;BMP180;68949;53.176;18.088;2023-11-21T07:52:30;99936.20;;;
79488;BMP180;68949;53.176;18.088;2023-11-21T07:54:57;99926.80;;;
79488;BMP180;68949;53.176;18.088;2023-11-21T07:57:23;99923.40;;;
79488;BMP180;68949;53.176;18.088;2023-11-21T07:59:50;99924.40;;;
79488;BMP180;68949;53.176;18.088;2023-11-21T08:02:20;99924.80;;;
79488;BMP180;68949;53.176;18.088;2023-11-21T08:04:47;99921.60;;;
79488;BMP180;68949;53.176;18.088;2023-11-21T08:07:17;99923.20;;;
79488;BMP180;68949;53.176;18.088;2023-11-21T08:09:44;99929.40;;;
79488;BMP180;68949;53.176;18.088;2023-11-21T08:12:11;99921.40;;;
79488;BMP180;68949;53.176;18.088;2023-11-21T08:14:39;99925.40;;;
79488;BMP180;68949;53.176;18.088;2023-11-21T08:17:07;99936.40;;;
79488;BMP180;68949;53.176;18.088;2023-11-21T08:19:39;99942.20;;;
79488;BMP180;68949;53.176;18.088;2023-11-21T08:22:06;99933.60;;;
79488;BMP180;68949;53.176;18.088;2023-11-21T08:24:34;99937.00;;;
79488;BMP180;68949;53.176;18.088;2023-11-21T08:27:01;99940.20;;;
79488;BMP180;68949;53.176;18.088;2023-11-21T08:29:28;99939.40;;;
79488;BMP180;68949;53.176;18.088;2023-11-21T08:31:54;99934.40;;;
79488;BMP180;68949;53.176;18.088;2023-11-21T08:34:22;99937.60;;;
79488;BMP180;68949;53.176;18.088;2023-11-21T08:36:49;99935.20;;;
79488;BMP180;68949;53.176;18.088;2023-11-21T08:39:17;99932.60;;;
79488;BMP180;68949;53.176;18.088;2023-11-21T08:41:45;99945.20;;;
79488;BMP180;68949;53.176;18.088;2023-11-21T08:44:12;99938.20;;;
79488;BMP180;68949;53.176;18.088;2023-11-21T08:46:39;99939.40;;;
79488;BMP180;68949;53.176;18.088;2023-11-21T08:49:06;99939.80;;;
79488;BMP180;68949;53.176;18.088;2023-11-21T08:51:33;99942.40;;;
79488;BMP180;68949;53.176;18.088;2023-11-21T08:53:59;99944.80;;;
79488;BMP180;68949;53.176;18.088;2023-11-21T08:56:31;99954.60;;;
79488;BMP180;68949;53.176;18.088;2023-11-21T08:58:57;99954.60;;;
79488;BMP180;68949;53.176;18.088;2023-11-21T09:01:24;99946.20;;;
79488;BMP180;68949;53.176;18.088;2023-11-21T09:03:51;99937.40;;;
79488;BMP180;68949;53.176;18.088;2023-11-21T09:06:19;99941.80;;;
79488;BMP180;68949;53.176;18.088;2023-11-21T09:08:46;99940.00;;;
79488;BMP180;68949;53.176;18.088;2023-11-21T09:11:12;99943.20;;;
79488;BMP180;68949;53.176;18.088;2023-11-21T09:13:40;99945.40;;;
79488;BMP180;68949;53.176;18.088;2023-11-21T09:16:07;99944.80;;;
79488;BMP180;68949;53.176;18.088;2023-11-21T09:18:34;99950.80;;;
79488;BMP180;68949;53.176;18.088;2023-11-21T09:21:01;99940.40;;;
79488;BMP180;68949;53.176;18.088;2023-11-21T09:23:28;99948.80;;;
79488;BMP180;68949;53.176;18.088;2023-11-21T09:25:54;99949.40;;;
79488;BMP180;68949;53.176;18.088;2023-11-21T09:28:23;99962.60;;;
79488;BMP180;68949;53.176;18.088;2023-11-21T09:30:50;99969.00;;;
79488;BMP180;68949;53.176;18.088;2023-11-21T09:33:17;99969.80;;;
79488;BMP180;68949;53.176;18.088;2023-11-21T09:35:44;99965.40;;;
79488;BMP180;68949;53.176;18.088;2023-11-21T09:38:14;99970.40;;;
79488;BMP180;68949;53.176;18.088;2023-11-21T09:40:41;99980.40;;;
79488;BMP180;68949;53.176;18.088;2023-11-21T09:43:17;99978.00;;;
79488;BMP180;68949;53.176;18.088;2023-11-21T09:46:05;99988.60;;;
79488;BMP180;68949;53.176;18.088;2023-11-21T09:48:34;100001.60;;;
79488;BMP180;68949;53.176;18.088;2023-11-21T09:51:04;100002.40;;;
79488;BMP180;68949;53.176;18.088;2023-11-21T09:53:32;100000.00;;;
79488;BMP180;68949;53.176;18.088;2023-11-21T09:56:00;100003.00;;;
79488;BMP180;68949;53.176;18.088;2023-11-21T09:58:29;100000.80;;;
79488;BMP180;68949;53.176;18.088;2023-11-21T10:00:59;100009.00;;;
79488;BMP180;68949;53.176;18.088;2023-11-21T10:03:26;100005.20;;;
79488;BMP180;68949;53.176;18.088;2023-11-21T10:05:56;100003.60;;;
79488;BMP180;68949;53.176;18.088;2023-11-21T10:08:27;99998.40;;;
79488;BMP180;68949;53.176;18.088;2023-11-21T10:10:55;100003.60;;;
79488;BMP180;68949;53.176;18.088;2023-11-21T10:13:22;100008.80;;;
79488;BMP180;68949;53.176;18.088;2023-11-21T10:15:51;100006.60;;;
79488;BMP180;68949;53.176;18.088;2023-11-21T10:18:19;100003.20;;;
79488;BMP180;68949;53.176;18.088;2023-11-21T10:20:46;100006.40;;;
79488;BMP180;68949;53.176;18.088;2023-11-21T10:23:22;100001.20;;;
79488;BMP180;68949;53.176;18.088;2023-11-21T10:25:51;100001.80;;;
79488;BMP180;68949;53.176;18.088;2023-11-21T10:28:18;100010.60;;;
79488;BMP180;68949;53.176;18.088;2023-11-21T10:30:47;100011.80;;;
79488;BMP180;68949;53.176;18.088;2023-11-21T10:33:14;100021.40;;;
79488;BMP180;68949;53.176;18.088;2023-11-21T10:35:47;100019.40;;;
79488;BMP180;68949;53.176;18.088;2023-11-21T10:38:17;100021.20;;;
79488;BMP180;68949;53.176;18.088;2023-11-21T10:40:45;100015.00;;;
79488;BMP180;68949;53.176;18.088;2023-11-21T10:43:13;100022.00;;;
79488;BMP180;68949;53.176;18.088;2023-11-21T10:45:43;100026.20;;;
79488;BMP180;68949;53.176;18.088;2023-11-21T10:48:13;100029.60;;;
79488;BMP180;68949;53.176;18.088;2023-11-21T10:50:45;100025.80;;;
79488;BMP180;68949;53.176;18.088;2023-11-21T10:53:13;100022.00;;;
79488;BMP180;68949;53.176;18.088;2023-11-21T10:55:40;100021.60;;;
79488;BMP180;68949;53.176;18.088;2023-11-21T10:58:07;100010.80;;;
79488;BMP180;68949;53.176;18.088;2023-11-21T11:00:38;100016.20;;;
79488;BMP180;68949;53.176;18.088;2023-11-21T11:03:06;100015.00;;;
79488;BMP180;68949;53.176;18.088;2023-11-21T11:05:41;100023.40;;;
79488;BMP180;68949;53.176;18.088;2023-11-21T11:08:12;100026.40;;;
79488;BMP180;68949;53.176;18.088;2023-11-21T11:10:38;100032.20;;;
79488;BMP180;68949;53.176;18.088;2023-11-21T11:13:07;100035.80;;;
79488;BMP180;68949;53.176;18.088;2023-11-21T11:15:34;100031.00;;;
79488;BMP180;68949;53.176;18.088;2023-11-21T11:18:02;100039.80;;;
79488;BMP180;68949;53.176;18.088;2023-11-21T11:20:36;100042.20;;;
79488;BMP180;68949;53.176;18.088;2023-11-21T11:23:55;100049.60;;;
79488;BMP180;68949;53.176;18.088;2023-11-21T11:33:19;100054.20;;;
79488;BMP180;68949;53.176;18.088;2023-11-21T11:36:01;100053.40;;;
79488;BMP180;68949;53.176;18.088;2023-11-21T11:38:34;100073.40;;;
79488;BMP180;68949;53.176;18.088;2023-11-21T11:41:04;100062.60;;;
79488;BMP180;68949;53.176;18.088;2023-11-21T11:43:32;100075.80;;;
79488;BMP180;68949;53.176;18.088;2023-11-21T11:46:03;100086.40;;;
79488;BMP180;68949;53.176;18.088;2023-11-21T11:48:37;100089.60;;;
79488;BMP180;68949;53.176;18.088;2023-11-21T11:51:13;100085.60;;;
79488;BMP180;68949;53.176;18.088;2023-11-21T11:53:48;100098.80;;;
79488;BMP180;68949;53.176;18.088;2023-11-21T11:56:31;100092.80;;;
79488;BMP180;68949;53.176;18.088;2023-11-21T11:59:04;100105.00;;;
79488;BMP180;68949;53.176;18.088;2023-11-21T12:01:33;100101.60;;;
79488;BMP180;68949;53.176;18.088;2023-11-21T12:06:53;100105.20;;;
79488;BMP180;68949;53.176;18.088;2023-11-21T12:09:23;100103.40;;;
79488;BMP180;68949;53.176;18.088;2023-11-21T12:11:51;100108.00;;;
79488;BMP180;68949;53.176;18.088;2023-11-21T12:14:18;100100.40;;;
79488;BMP180;68949;53.176;18.088;2023-11-21T12:16:45;100109.80;;;
79488;BMP180;68949;53.176;18.088;2023-11-21T12:19:12;100116.20;;;
79488;BMP180;68949;53.176;18.088;2023-11-21T12:21:40;100115.20;;;
79488;BMP180;68949;53.176;18.088;2023-11-21T12:24:07;100116.60;;;
79488;BMP180;68949;53.176;18.088;2023-11-21T12:26:41;100116.40;;;
79488;BMP180;68949;53.176;18.088;2023-11-21T12:29:07;100120.00;;;
79488;BMP180;68949;53.176;18.088;2023-11-21T12:31:35;100113.20;;;
79488;BMP180;68949;53.176;18.088;2023-11-21T12:34:03;100106.00;;;
79488;BMP180;68949;53.176;18.088;2023-11-21T12:36:32;100103.80;;;
79488;BMP180;68949;53.176;18.088;2023-11-21T12:39:02;100101.80;;;
79488;BMP180;68949;53.176;18.088;2023-11-21T12:41:29;100114.80;;;
79488;BMP180;68949;53.176;18.088;2023-11-21T12:43:57;100110.20;;;
79488;BMP180;68949;53.176;18.088;2023-11-21T12:46:24;100121.20;;;
79488;BMP180;68949;53.176;18.088;2023-11-21T12:48:54;100120.80;;;
79488;BMP180;68949;53.176;18.088;2023-11-21T12:51:23;100121.40;;;
79488;BMP180;68949;53.176;18.088;2023-11-21T12:53:50;100138.40;;;
79488;BMP180;68949;53.176;18.088;2023-11-21T12:56:17;100137.60;;;
79488;BMP180;68949;53.176;18.088;2023-11-21T12:58:45;100135.20;;;
79488;BMP180;68949;53.176;18.088;2023-11-21T13:01:17;100138.40;;;
79488;BMP180;68949;53.176;18.088;2023-11-21T13:03:50;100144.60;;;
79488;BMP180;68949;53.176;18.088;2023-11-21T13:06:18;100145.40;;;
79488;BMP180;68949;53.176;18.088;2023-11-21T13:08:47;100148.20;;;
79488;BMP180;68949;53.176;18.088;2023-11-21T13:11:17;100146.40;;;
79488;BMP180;68949;53.176;18.088;2023-11-21T13:13:44;100164.20;;;
79488;BMP180;68949;53.176;18.088;2023-11-21T13:16:10;100160.00;;;
79488;BMP180;68949;53.176;18.088;2023-11-21T13:18:37;100161.00;;;
79488;BMP180;68949;53.176;18.088;2023-11-21T13:21:09;100169.20;;;
79488;BMP180;68949;53.176;18.088;2023-11-21T13:23:44;100168.00;;;
79488;BMP180;68949;53.176;18.088;2023-11-21T13:26:13;100166.00;;;
79488;BMP180;68949;53.176;18.088;2023-11-21T13:28:41;100170.20;;;
79488;BMP180;68949;53.176;18.088;2023-11-21T13:31:14;100175.00;;;
79488;BMP180;68949;53.176;18.088;2023-11-21T13:34:09;100189.40;;;
79488;BMP180;68949;53.176;18.088;2023-11-21T13:36:36;100194.40;;;
79488;BMP180;68949;53.176;18.088;2023-11-21T13:39:03;100196.20;;;
79488;BMP180;68949;53.176;18.088;2023-11-21T13:41:41;100195.20;;;
79488;BMP180;68949;53.176;18.088;2023-11-21T13:44:09;100204.80;;;
79488;BMP180;68949;53.176;18.088;2023-11-21T13:47:05;100204.40;;;
79488;BMP180;68949;53.176;18.088;2023-11-21T13:49:32;100209.60;;;
79488;BMP180;68949;53.176;18.088;2023-11-21T13:52:07;100213.60;;;
79488;BMP180;68949;53.176;18.088;2023-11-21T13:54:35;100224.40;;;
79488;BMP180;68949;53.176;18.088;2023-11-21T13:57:02;100232.20;;;
79488;BMP180;68949;53.176;18.088;2023-11-21T13:59:29;100232.60;;;
79488;BMP180;68949;53.176;18.088;2023-11-21T14:01:59;100231.60;;;
79488;BMP180;68949;53.176;18.088;2023-11-21T14:04:29;100233.40;;;
79488;BMP180;68949;53.176;18.088;2023-11-21T14:07:19;100233.60;;;
79488;BMP180;68949;53.176;18.088;2023-11-21T14:10:00;100248.40;;;
79488;BMP180;68949;53.176;18.088;2023-11-21T14:12:35;100250.40;;;
79488;BMP180;68949;53.176;18.088;2023-11-21T14:15:06;100248.40;;;
79488;BMP180;68949;53.176;18.088;2023-11-21T14:17:35;100252.60;;;
79488;BMP180;68949;53.176;18.088;2023-11-21T14:20:06;100250.20;;;
79488;BMP180;68949;53.176;18.088;2023-11-21T14:22:33;100250.20;;;
79488;BMP180;68949;53.176;18.088;2023-11-21T14:25:04;100253.80;;;
79488;BMP180;68949;53.176;18.088;2023-11-21T14:27:30;100254.60;;;
79488;BMP180;68949;53.176;18.088;2023-11-21T14:29:59;100247.00;;;
79488;BMP180;68949;53.176;18.088;2023-11-21T14:32:26;100252.00;;;
79488;BMP180;68949;53.176;18.088;2023-11-21T14:34:54;100250.00;;;
79488;BMP180;68949;53.176;18.088;2023-11-21T14:37:24;100264.20;;;
79488;BMP180;68949;53.176;18.088;2023-11-21T14:39:52;100267.60;;;
79488;BMP180;68949;53.176;18.088;2023-11-21T14:42:19;100274.60;;;
79488;BMP180;68949;53.176;18.088;2023-11-21T14:44:51;100269.20;;;
79488;BMP180;68949;53.176;18.088;2023-11-21T14:47:19;100270.80;;;
79488;BMP180;68949;53.176;18.088;2023-11-21T14:49:51;100278.20;;;
79488;BMP180;68949;53.176;18.088;2023-11-21T14:52:22;100284.40;;;
79488;BMP180;68949;53.176;18.088;2023-11-21T14:55:05;100284.40;;;
79488;BMP180;68949;53.176;18.088;2023-11-21T14:57:52;100290.40;;;
79488;BMP180;68949;53.176;18.088;2023-11-21T15:00:20;100288.80;;;
79488;BMP180;68949;53.176;18.088;2023-11-21T15:03:04;100293.00;;;
79488;BMP180;68949;53.176;18.088;2023-11-21T15:05:33;100284.80;;;
79488;BMP180;68949;53.176;18.088;2023-11-21T15:08:05;100283.20;;;
79488;BMP180;68949;53.176;18.088;2023-11-21T15:10:47;100291.00;;;
79488;BMP180;68949;53.176;18.088;2023-11-21T15:13:20;100287.20;;;
79488;BMP180;68949;53.176;18.088;2023-11-21T15:15:49;100283.20;;;